createdAt,value
2022-10-30T00:01:00.406Z,8.00
2022-10-30T00:03:45.784Z,8.60
2022-10-30T00:06:13.737Z,8.50
2022-10-30T00:08:58.917Z,8.50
2022-10-30T00:11:26.945Z,8.50
2022-10-30T00:13:54.628Z,7.80
2022-10-30T00:16:40.162Z,9.70
2022-10-30T00:19:07.975Z,7.70
2022-10-30T00:21:35.701Z,7.60
2022-10-30T00:24:03.741Z,7.40
2022-10-30T00:26:32.405Z,7.80
2022-10-30T00:29:00.083Z,8.00
2022-10-30T00:31:28.058Z,7.80
2022-10-30T00:33:56.113Z,9.70
2022-10-30T00:36:24.045Z,9.40
2022-10-30T00:38:52.021Z,9.40
2022-10-30T00:41:24.119Z,9.30
2022-10-30T00:44:43.558Z,8.40
2022-10-30T00:47:41.586Z,9.00
2022-10-30T00:50:19.598Z,8.90
2022-10-30T00:52:56.898Z,8.60
2022-10-30T00:55:52.057Z,8.60
2022-10-30T00:58:46.465Z,9.90
2022-10-30T01:02:04.776Z,8.00
2022-10-30T01:04:37.891Z,8.90
2022-10-30T01:07:10.916Z,8.20
2022-10-30T01:09:40.983Z,8.30
2022-10-30T01:12:09.727Z,8.60
2022-10-30T01:14:43.495Z,7.60
2022-10-30T01:17:36.797Z,8.20
2022-10-30T01:20:32.930Z,8.20
2022-10-30T01:23:39.492Z,7.80
2022-10-30T01:26:21.155Z,8.70
2022-10-30T01:29:07.527Z,8.90
2022-10-30T01:31:57.939Z,8.60
2022-10-30T01:34:51.573Z,10.20
2022-10-30T01:37:45.967Z,8.60
2022-10-30T01:40:16.343Z,8.50
2022-10-30T01:43:02.088Z,9.50
2022-10-30T01:45:54.584Z,8.00
2022-10-30T01:48:42.975Z,8.20
2022-10-30T01:51:38.699Z,8.40
2022-10-30T01:54:40.670Z,8.10
2022-10-30T01:57:24.252Z,8.00
2022-10-30T02:00:04.055Z,9.40
2022-10-30T02:02:42.061Z,9.50
2022-10-30T02:05:38.933Z,8.90
2022-10-30T02:08:07.240Z,8.20
2022-10-30T02:10:38.250Z,8.60
2022-10-30T02:13:23.631Z,9.30
2022-10-30T02:15:51.794Z,9.40
2022-10-30T02:18:19.733Z,8.30
2022-10-30T02:21:05.058Z,8.40
2022-10-30T02:23:33.038Z,10.00
2022-10-30T02:26:01.342Z,9.90
2022-10-30T02:28:29.376Z,9.60
2022-10-30T02:30:59.518Z,9.80
2022-10-30T02:33:49.138Z,10.10
2022-10-30T02:39:06.660Z,10.70
2022-10-30T02:41:37.178Z,9.70
2022-10-30T02:44:06.750Z,9.70
2022-10-30T02:46:35.066Z,9.80
2022-10-30T02:49:20.372Z,9.10
2022-10-30T02:51:48.597Z,9.50
2022-10-30T02:54:34.637Z,10.40
2022-10-30T02:57:02.896Z,10.30
2022-10-30T02:59:30.616Z,9.30
2022-10-30T03:02:16.536Z,10.00
2022-10-30T03:04:44.575Z,9.60
2022-10-30T03:07:12.914Z,9.40
2022-10-30T03:09:40.887Z,8.70
2022-10-30T03:12:09.050Z,8.90
2022-10-30T03:14:36.841Z,9.40
2022-10-30T03:17:05.530Z,9.30
2022-10-30T03:19:33.265Z,10.80
2022-10-30T03:22:01.107Z,9.70
2022-10-30T03:24:46.997Z,9.80
2022-10-30T03:27:14.868Z,10.10
2022-10-30T03:29:42.511Z,9.60
2022-10-30T03:32:11.037Z,9.90
2022-10-30T03:34:46.515Z,9.20
2022-10-30T03:37:14.432Z,8.80
2022-10-30T03:39:42.045Z,9.70
2022-10-30T03:42:09.908Z,9.30
2022-10-30T03:44:37.682Z,9.00
2022-10-30T03:47:05.604Z,9.00
2022-10-30T03:49:36.907Z,8.60
2022-10-30T03:52:08.292Z,8.60
2022-10-30T03:54:35.900Z,8.30
2022-10-30T03:57:21.433Z,8.80
2022-10-30T04:00:12.838Z,8.40
2022-10-30T04:02:48.659Z,8.00
2022-10-30T04:05:43.009Z,8.80
2022-10-30T04:08:29.419Z,8.20
2022-10-30T04:10:57.777Z,8.30
2022-10-30T04:13:25.451Z,8.20
2022-10-30T04:15:58.033Z,8.90
2022-10-30T04:18:46.837Z,9.00
2022-10-30T04:21:15.155Z,9.10
2022-10-30T04:23:44.218Z,8.30
2022-10-30T04:26:32.891Z,9.10
2022-10-30T04:29:04.014Z,9.10
2022-10-30T04:31:36.300Z,8.30
2022-10-30T04:34:04.150Z,8.50
2022-10-30T04:36:36.113Z,8.10
2022-10-30T04:39:04.621Z,9.30
2022-10-30T04:41:37.057Z,8.80
2022-10-30T04:44:10.725Z,9.00
2022-10-30T04:46:45.609Z,8.90
2022-10-30T04:49:40.320Z,9.30
2022-10-30T04:52:09.191Z,9.30
2022-10-30T04:54:36.888Z,9.80
2022-10-30T04:57:05.017Z,9.60
2022-10-30T04:59:51.651Z,9.30
2022-10-30T05:02:25.180Z,8.80
2022-10-30T05:06:04.844Z,9.70
2022-10-30T05:08:33.359Z,8.50
2022-10-30T05:11:10.613Z,8.30
2022-10-30T05:13:42.712Z,8.80
2022-10-30T05:16:11.081Z,9.30
2022-10-30T05:18:45.947Z,9.30
2022-10-30T05:21:31.394Z,8.20
2022-10-30T05:24:25.380Z,10.20
2022-10-30T05:26:53.271Z,9.70
2022-10-30T05:29:21.183Z,10.20
2022-10-30T05:32:06.399Z,10.10
2022-10-30T05:34:57.672Z,9.80
2022-10-30T05:37:26.593Z,10.20
2022-10-30T05:39:54.357Z,8.30
2022-10-30T05:42:32.100Z,9.50
2022-10-30T05:45:05.518Z,9.50
2022-10-30T05:47:58.484Z,9.00
2022-10-30T05:50:46.052Z,9.00
2022-10-30T05:53:50.065Z,9.10
2022-10-30T05:56:45.000Z,9.30
2022-10-30T05:59:26.633Z,9.80
2022-10-30T06:02:12.364Z,8.90
2022-10-30T06:05:05.903Z,9.10
2022-10-30T06:07:55.695Z,8.90
2022-10-30T06:10:42.585Z,8.60
2022-10-30T06:13:36.478Z,9.30
2022-10-30T06:16:28.968Z,9.00
2022-10-30T06:19:50.943Z,9.00
2022-10-30T06:23:10.653Z,9.30
2022-10-30T06:26:16.804Z,8.80
2022-10-30T06:28:59.608Z,9.20
2022-10-30T06:31:27.732Z,9.00
2022-10-30T06:34:27.594Z,8.80
2022-10-30T06:40:36.567Z,9.00
2022-10-30T06:43:36.050Z,8.50
2022-10-30T06:46:19.994Z,8.50
2022-10-30T06:48:48.362Z,8.60
2022-10-30T06:51:19.805Z,8.90
2022-10-30T06:56:50.665Z,8.70
2022-10-30T07:00:10.050Z,8.80
2022-10-30T07:03:01.911Z,8.20
2022-10-30T07:05:33.227Z,8.00
2022-10-30T07:08:28.034Z,9.60
2022-10-30T07:10:58.497Z,9.40
2022-10-30T07:14:07.415Z,7.80
2022-10-30T07:16:56.288Z,8.70
2022-10-30T07:19:26.493Z,8.60
2022-10-30T07:22:13.790Z,8.40
2022-10-30T07:25:02.961Z,8.80
2022-10-30T07:28:09.434Z,9.60
2022-10-30T07:30:50.292Z,8.80
2022-10-30T07:33:48.204Z,8.50
2022-10-30T07:36:29.043Z,8.50
2022-10-30T07:39:48.406Z,7.70
2022-10-30T07:43:13.363Z,11.50
2022-10-30T07:45:48.228Z,8.40
2022-10-30T07:48:48.386Z,8.40
2022-10-30T07:51:48.440Z,8.10
2022-10-30T07:54:16.863Z,9.30
2022-10-30T07:57:11.782Z,8.10
2022-10-30T08:00:49.267Z,8.60
2022-10-30T08:03:36.697Z,8.20
2022-10-30T08:06:29.442Z,8.60
2022-10-30T08:08:57.746Z,9.40
2022-10-30T08:12:06.646Z,9.20
2022-10-30T08:14:35.672Z,8.70
2022-10-30T08:17:10.962Z,8.20
2022-10-30T08:23:03.880Z,8.90
2022-10-30T08:25:49.169Z,8.50
2022-10-30T08:28:16.922Z,8.30
2022-10-30T08:31:29.131Z,7.80
2022-10-30T08:34:31.881Z,8.10
2022-10-30T08:37:17.667Z,7.10
2022-10-30T08:40:11.535Z,7.30
2022-10-30T08:43:26.924Z,6.20
2022-10-30T08:50:04.907Z,8.00
2022-10-30T08:52:38.885Z,7.10
2022-10-30T08:55:14.122Z,7.40
2022-10-30T08:58:10.272Z,7.20
2022-10-30T09:00:39.002Z,7.80
2022-10-30T09:03:34.144Z,6.90
2022-10-30T09:06:20.700Z,7.60
2022-10-30T09:09:23.429Z,7.80
2022-10-30T09:11:54.218Z,7.40
2022-10-30T09:14:22.088Z,8.20
2022-10-30T09:16:50.576Z,7.40
2022-10-30T09:19:38.096Z,6.30
2022-10-30T09:22:10.585Z,7.00
2022-10-30T09:24:57.700Z,6.40
2022-10-30T09:27:44.241Z,5.60
2022-10-30T09:30:13.576Z,6.10
2022-10-30T09:32:47.312Z,5.90
2022-10-30T09:35:37.782Z,6.50
2022-10-30T09:38:05.797Z,5.90
2022-10-30T09:40:54.223Z,5.80
2022-10-30T09:44:26.468Z,5.40
2022-10-30T09:47:00.040Z,5.60
2022-10-30T09:49:47.501Z,5.50
2022-10-30T09:52:24.571Z,5.00
2022-10-30T09:55:16.630Z,5.20
2022-10-30T09:57:50.844Z,4.60
2022-10-30T10:00:22.684Z,5.40
2022-10-30T10:03:13.118Z,5.60
2022-10-30T10:05:59.222Z,5.90
2022-10-30T10:09:17.099Z,5.50
2022-10-30T10:12:24.990Z,5.00
2022-10-30T10:14:54.785Z,5.00
2022-10-30T10:17:34.906Z,4.40
2022-10-30T10:20:05.724Z,4.40
2022-10-30T10:22:53.703Z,4.50
2022-10-30T10:25:21.522Z,3.80
2022-10-30T10:27:58.011Z,4.40
2022-10-30T10:30:38.706Z,4.20
2022-10-30T10:33:26.410Z,4.60
2022-10-30T10:36:12.273Z,4.90
2022-10-30T10:39:08.098Z,4.60
2022-10-30T10:42:03.167Z,4.20
2022-10-30T10:44:53.539Z,4.80
2022-10-30T10:47:23.897Z,5.20
2022-10-30T10:50:28.693Z,4.80
2022-10-30T10:53:07.305Z,4.60
2022-10-30T10:55:37.933Z,4.30
2022-10-30T10:58:25.075Z,4.10
2022-10-30T11:00:58.409Z,4.20
2022-10-30T11:03:39.627Z,4.40
2022-10-30T11:06:29.986Z,4.30
2022-10-30T11:09:24.528Z,4.20
2022-10-30T11:11:55.267Z,4.60
2022-10-30T11:14:29.478Z,4.40
2022-10-30T11:17:39.440Z,4.10
2022-10-30T11:20:21.100Z,4.60
2022-10-30T11:22:51.893Z,4.30
2022-10-30T11:25:37.443Z,4.10
2022-10-30T11:28:05.748Z,4.80
2022-10-30T11:30:33.359Z,4.40
2022-10-30T11:33:21.627Z,4.10
2022-10-30T11:36:15.533Z,4.30
2022-10-30T11:38:45.242Z,4.20
2022-10-30T11:41:14.257Z,3.90
2022-10-30T11:43:59.363Z,4.30
2022-10-30T11:46:27.235Z,4.30
2022-10-30T11:48:55.370Z,4.10
2022-10-30T11:51:41.189Z,4.80
2022-10-30T11:54:20.243Z,4.70
2022-10-30T11:57:24.783Z,4.30
2022-10-30T11:59:55.488Z,3.90
2022-10-30T12:02:28.252Z,4.20
2022-10-30T12:05:02.076Z,4.10
2022-10-30T12:07:34.612Z,3.80
2022-10-30T12:10:27.748Z,3.80
2022-10-30T12:12:56.346Z,4.20
2022-10-30T12:15:26.861Z,3.80
2022-10-30T12:17:59.920Z,3.70
2022-10-30T12:20:29.175Z,3.70
2022-10-30T12:22:58.146Z,3.90
2022-10-30T12:25:48.081Z,4.00
2022-10-30T12:28:20.330Z,3.80
2022-10-30T12:30:56.617Z,4.40
2022-10-30T12:33:52.258Z,3.80
2022-10-30T12:36:26.714Z,3.80
2022-10-30T12:39:03.037Z,4.10
2022-10-30T12:41:42.732Z,4.10
2022-10-30T12:44:19.346Z,4.10
2022-10-30T12:46:54.887Z,4.40
2022-10-30T12:49:42.808Z,3.80
2022-10-30T12:52:24.728Z,3.50
2022-10-30T12:55:01.209Z,3.70
2022-10-30T12:57:36.090Z,3.70
2022-10-30T13:00:15.704Z,3.90
2022-10-30T13:03:05.535Z,3.80
2022-10-30T13:06:21.099Z,3.90
2022-10-30T13:09:10.750Z,3.90
2022-10-30T13:11:51.568Z,3.60
2022-10-30T13:17:04.720Z,4.20
2022-10-30T13:19:32.326Z,3.70
2022-10-30T13:22:08.532Z,4.00
2022-10-30T13:25:13.144Z,4.30
2022-10-30T13:27:48.095Z,4.10
2022-10-30T13:30:19.700Z,4.40
2022-10-30T13:33:09.394Z,4.30
2022-10-30T13:36:08.136Z,4.00
2022-10-30T13:38:54.005Z,4.40
2022-10-30T13:41:47.858Z,4.60
2022-10-30T13:44:28.099Z,5.20
2022-10-30T13:47:16.334Z,4.20
2022-10-30T13:49:46.867Z,5.50
2022-10-30T13:52:17.652Z,4.40
2022-10-30T13:54:48.814Z,4.40
2022-10-30T13:57:40.613Z,4.40
2022-10-30T14:00:26.593Z,4.60
2022-10-30T14:03:28.340Z,5.80
2022-10-30T14:06:33.795Z,4.90
2022-10-30T14:09:39.626Z,5.60
2022-10-30T14:12:56.375Z,10.10
2022-10-30T14:15:24.250Z,10.20
2022-10-30T14:18:23.737Z,8.30
2022-10-30T14:20:53.328Z,5.00
2022-10-30T14:23:38.785Z,4.90
2022-10-30T14:26:06.564Z,4.40
2022-10-30T14:28:39.903Z,5.20
2022-10-30T14:31:20.042Z,4.50
2022-10-30T14:33:53.238Z,4.70
2022-10-30T14:36:24.058Z,4.10
2022-10-30T14:39:13.202Z,4.40
2022-10-30T14:42:23.590Z,5.60
2022-10-30T14:45:25.852Z,6.40
2022-10-30T14:48:11.543Z,10.50
2022-10-30T14:51:18.459Z,9.20
2022-10-30T14:54:24.378Z,8.70
2022-10-30T14:57:43.142Z,10.40
2022-10-30T15:00:37.112Z,9.90
2022-10-30T15:03:15.004Z,8.50
2022-10-30T15:06:12.142Z,8.00
2022-10-30T15:09:11.359Z,6.30
2022-10-30T15:11:51.165Z,6.20
2022-10-30T15:17:43.609Z,5.20
2022-10-30T15:20:32.494Z,5.30
2022-10-30T15:23:08.785Z,6.30
2022-10-30T15:25:45.552Z,5.50
2022-10-30T15:28:40.119Z,4.90
2022-10-30T15:31:23.505Z,5.20
2022-10-30T15:33:53.266Z,4.90
2022-10-30T15:36:40.336Z,5.10
2022-10-30T15:39:15.466Z,5.60
2022-10-30T15:42:04.370Z,5.40
2022-10-30T15:44:35.184Z,5.60
2022-10-30T15:47:05.377Z,6.60
2022-10-30T15:49:41.776Z,6.30
2022-10-30T15:52:19.333Z,5.40
2022-10-30T15:54:52.158Z,5.70
2022-10-30T15:58:00.905Z,6.30
2022-10-30T16:00:28.811Z,6.20
2022-10-30T16:03:18.224Z,8.80
2022-10-30T16:06:05.458Z,10.50
2022-10-30T16:08:50.941Z,8.50
2022-10-30T16:11:20.967Z,8.20
2022-10-30T16:13:49.988Z,7.90
2022-10-30T16:16:24.615Z,8.00
2022-10-30T16:18:53.927Z,8.80
2022-10-30T16:21:23.766Z,9.30
2022-10-30T16:23:55.202Z,7.30
2022-10-30T16:26:35.708Z,8.20
2022-10-30T16:29:24.739Z,6.60
2022-10-30T16:31:53.465Z,7.00
2022-10-30T16:34:37.417Z,6.60
2022-10-30T16:37:06.812Z,7.40
2022-10-30T16:39:36.923Z,7.10
2022-10-30T16:42:25.735Z,9.80
2022-10-30T16:45:11.695Z,10.10
2022-10-30T16:47:44.048Z,10.10
2022-10-30T16:50:16.049Z,10.10
2022-10-30T16:52:44.109Z,10.30
2022-10-30T16:55:21.327Z,11.80
2022-10-30T16:57:55.895Z,13.00
2022-10-30T17:00:27.416Z,11.80
2022-10-30T17:02:58.943Z,13.60
2022-10-30T17:05:34.104Z,14.70
2022-10-30T17:08:26.153Z,15.90
2022-10-30T17:11:03.003Z,13.50
2022-10-30T17:13:36.873Z,11.50
2022-10-30T17:16:20.369Z,12.10
2022-10-30T17:18:57.647Z,9.80
2022-10-30T17:21:40.929Z,10.00
2022-10-30T17:24:28.436Z,14.30
2022-10-30T17:27:30.380Z,8.50
2022-10-30T17:29:58.433Z,8.20
2022-10-30T17:32:41.375Z,7.60
2022-10-30T17:35:27.264Z,7.00
2022-10-30T17:37:58.393Z,7.80
2022-10-30T17:40:47.680Z,7.20
2022-10-30T17:43:15.588Z,7.30
2022-10-30T17:45:44.371Z,6.80
2022-10-30T17:48:17.711Z,6.90
2022-10-30T17:50:45.575Z,7.20
2022-10-30T17:53:16.413Z,7.70
2022-10-30T17:55:49.610Z,7.80
2022-10-30T17:58:37.039Z,8.70
2022-10-30T18:01:05.124Z,7.90
2022-10-30T18:03:32.874Z,7.90
2022-10-30T18:06:02.164Z,7.70
2022-10-30T18:08:29.945Z,8.00
2022-10-30T18:10:57.521Z,7.90
2022-10-30T18:13:25.210Z,7.60
2022-10-30T18:15:56.021Z,7.90
2022-10-30T18:18:41.820Z,7.50
2022-10-30T18:21:18.720Z,7.50
2022-10-30T18:23:52.324Z,7.60
2022-10-30T18:26:25.260Z,8.00
2022-10-30T18:28:53.281Z,8.40
2022-10-30T18:31:23.552Z,7.80
2022-10-30T18:34:18.355Z,8.20
2022-10-30T18:36:46.411Z,8.60
2022-10-30T18:39:14.096Z,8.20
2022-10-30T18:41:46.475Z,8.80
2022-10-30T18:44:18.854Z,7.80
2022-10-30T18:46:46.817Z,7.60
2022-10-30T18:49:14.564Z,7.00
2022-10-30T18:51:42.367Z,6.80
2022-10-30T18:54:16.998Z,7.40
2022-10-30T18:56:44.891Z,8.00
2022-10-30T18:59:12.522Z,7.80
2022-10-30T19:01:40.648Z,7.00
2022-10-30T19:04:26.217Z,7.40
2022-10-30T19:06:54.116Z,7.40
2022-10-30T19:09:21.913Z,7.10
2022-10-30T19:11:49.531Z,7.30
2022-10-30T19:14:17.179Z,9.50
2022-10-30T19:16:44.890Z,8.20
2022-10-30T19:19:15.020Z,9.30
2022-10-30T19:21:43.438Z,8.90
2022-10-30T19:24:15.231Z,8.60
2022-10-30T19:26:42.865Z,9.00
2022-10-30T19:29:28.431Z,9.20
2022-10-30T19:31:56.189Z,8.90
2022-10-30T19:34:23.775Z,9.40
2022-10-30T19:36:51.678Z,9.50
2022-10-30T19:39:19.468Z,10.50
2022-10-30T19:41:47.107Z,10.20
2022-10-30T19:44:15.057Z,9.80
2022-10-30T19:46:42.694Z,9.90
2022-10-30T19:49:18.263Z,9.80
2022-10-30T19:52:04.745Z,9.60
2022-10-30T19:54:32.876Z,9.40
2022-10-30T19:57:00.459Z,10.20
2022-10-30T19:59:28.076Z,11.20
2022-10-30T20:01:57.337Z,10.40
2022-10-30T20:04:43.117Z,10.50
2022-10-30T20:07:10.900Z,11.70
2022-10-30T20:09:38.648Z,11.90
2022-10-30T20:12:06.891Z,13.50
2022-10-30T20:14:34.694Z,12.60
2022-10-30T20:17:19.761Z,12.90
2022-10-30T20:19:47.473Z,13.20
2022-10-30T20:22:15.051Z,12.90
2022-10-30T20:24:42.818Z,12.50
2022-10-30T20:27:10.993Z,12.40
2022-10-30T20:29:42.548Z,12.80
2022-10-30T20:34:55.801Z,12.20
2022-10-30T20:37:23.856Z,12.00
2022-10-30T20:39:51.897Z,12.80
2022-10-30T20:42:21.904Z,12.10
2022-10-30T20:44:49.666Z,12.40
2022-10-30T20:47:17.689Z,11.80
2022-10-30T20:50:03.057Z,11.40
2022-10-30T20:52:48.763Z,12.00
2022-10-30T20:55:35.256Z,12.00
2022-10-30T20:58:03.634Z,12.50
2022-10-30T21:00:31.374Z,12.70
2022-10-30T21:03:02.336Z,12.30
2022-10-30T21:05:43.433Z,11.30
2022-10-30T21:08:13.875Z,11.30
2022-10-30T21:10:42.478Z,12.30
2022-10-30T21:13:28.885Z,11.60
2022-10-30T21:16:01.646Z,11.70
2022-10-30T21:18:29.678Z,11.80
2022-10-30T21:21:21.558Z,10.80
2022-10-30T21:23:56.456Z,11.20
2022-10-30T21:26:24.869Z,11.00
2022-10-30T21:29:11.107Z,13.00
2022-10-30T21:31:38.936Z,12.40
2022-10-30T21:34:24.271Z,11.70
2022-10-30T21:36:52.334Z,11.80
2022-10-30T21:39:19.940Z,12.80
2022-10-30T21:42:05.694Z,13.10
2022-10-30T21:44:33.465Z,12.80
2022-10-30T21:47:01.295Z,11.30
2022-10-30T21:49:29.066Z,12.70
2022-10-30T21:51:56.876Z,11.60
2022-10-30T21:54:24.538Z,12.00
2022-10-30T21:56:52.362Z,12.20
2022-10-30T21:59:20.091Z,10.70
2022-10-30T22:01:47.865Z,10.70
2022-10-30T22:04:16.502Z,11.00
2022-10-30T22:06:44.472Z,12.50
2022-10-30T22:09:29.734Z,11.20
2022-10-30T22:11:57.344Z,11.70
2022-10-30T22:14:25.526Z,11.40
2022-10-30T22:16:53.292Z,11.30
2022-10-30T22:19:21.041Z,12.40
2022-10-30T22:21:48.652Z,12.30
2022-10-30T22:24:17.337Z,11.40
2022-10-30T22:26:46.300Z,12.60
2022-10-30T22:29:13.954Z,12.40
2022-10-30T22:31:41.790Z,11.70
2022-10-30T22:34:09.487Z,11.90
2022-10-30T22:36:37.095Z,12.70
2022-10-30T22:39:07.711Z,12.60
2022-10-30T22:41:37.947Z,12.20
2022-10-30T22:44:08.363Z,12.90
2022-10-30T22:46:54.642Z,11.60
2022-10-30T22:49:22.556Z,11.50
2022-10-30T22:52:08.067Z,11.40
2022-10-30T22:54:35.837Z,12.70
2022-10-30T22:57:03.544Z,12.20
2022-10-30T22:59:31.256Z,11.60
2022-10-30T23:01:59.145Z,11.80
2022-10-30T23:04:26.799Z,12.40
2022-10-30T23:06:54.600Z,11.50
2022-10-30T23:09:22.608Z,11.50
2022-10-30T23:11:50.797Z,10.70
2022-10-30T23:14:19.328Z,10.90
2022-10-30T23:16:47.325Z,13.20
2022-10-30T23:19:14.964Z,13.00
2022-10-30T23:21:44.332Z,13.90
2022-10-30T23:24:12.224Z,14.00
2022-10-30T23:26:40.015Z,13.00
2022-10-30T23:29:07.864Z,13.20
2022-10-30T23:31:41.091Z,12.10
2022-10-30T23:34:13.565Z,12.90
2022-10-30T23:36:42.566Z,12.00
2022-10-30T23:39:14.502Z,11.80
2022-10-30T23:41:42.258Z,11.60
2022-10-30T23:44:14.733Z,11.90
2022-10-30T23:46:43.261Z,12.10
2022-10-30T23:49:11.025Z,10.70
2022-10-30T23:51:39.016Z,11.60
2022-10-30T23:54:06.830Z,12.00
2022-10-30T23:56:34.638Z,12.30
2022-10-30T23:59:02.319Z,13.90
